Country
Station

 

Weather  for  Cortez, Cortez-Montezuma County Airport  -  United States    United States

  
-1 °C (30 °F)
    
 
 

Current METAR for Cortez, Cortez-Montezuma County Airport is :

KCEZ 210753Z AUTO 04003KT 10SM CLR M01/M05 A2991 RMK AO2 SLP116 T10061050

 

This is a report for Cortez, Cortez-Montezuma County Airport - United States.
 
The report was made 40 minutes ago, at 07:53 UTC .
The wind was blowing at a speed of 1.5 meters per second (3.5 miles per hour) from northeast (040°).
 
The temperature was -1 °C (30 °F), with a dew-point at -5 °C (23 °F).
The temperature felt like -3 °C (26 °F).
 
The atmospheric pressure was 1013 hPa (29.91 inHg).
The relative humidity was 74.2%.
 
The sky was clear.
 
The overall visibility was 16.1 kilometers (10.0 miles).
 

 
 
 
 

Country :   A   B   C   D   E   F   G   H   I   J   K   L   M   N   O   P   Q   R   S   T   U   V   W   Y   Z

 

Site Info  |  Disclaimer  |  Credits  |  Privacy
Contact us  |  Add to favorites
© 2013-2019 METARs - All rights reserved